sensor_id;sensor_type;location;lat;lon;timestamp;temperature;humidity
44427;DHT22;30133;47.866;-4.222;2022-09-25T00:01:15;21.70;53.60
44427;DHT22;30133;47.866;-4.222;2022-09-25T00:03:46;21.70;53.60
44427;DHT22;30133;47.866;-4.222;2022-09-25T00:06:16;21.70;53.60
44427;DHT22;30133;47.866;-4.222;2022-09-25T00:08:47;21.70;53.70
44427;DHT22;30133;47.866;-4.222;2022-09-25T00:13:48;21.70;53.70
44427;DHT22;30133;47.866;-4.222;2022-09-25T00:16:23;21.70;53.70
44427;DHT22;30133;47.866;-4.222;2022-09-25T00:18:51;21.70;53.80
44427;DHT22;30133;47.866;-4.222;2022-09-25T00:21:36;21.70;53.80
44427;DHT22;30133;47.866;-4.222;2022-09-25T00:24:07;21.60;53.70
44427;DHT22;30133;47.866;-4.222;2022-09-25T00:26:37;21.70;53.80
44427;DHT22;30133;47.866;-4.222;2022-09-25T00:29:08;21.60;53.70
44427;DHT22;30133;47.866;-4.222;2022-09-25T00:31:42;21.70;53.70
44427;DHT22;30133;47.866;-4.222;2022-09-25T00:34:09;21.60;53.70
44427;DHT22;30133;47.866;-4.222;2022-09-25T00:36:36;21.60;53.70
44427;DHT22;30133;47.866;-4.222;2022-09-25T00:39:04;21.60;53.70
44427;DHT22;30133;47.866;-4.222;2022-09-25T00:41:32;21.60;53.70
44427;DHT22;30133;47.866;-4.222;2022-09-25T00:44:01;21.60;53.70
44427;DHT22;30133;47.866;-4.222;2022-09-25T00:46:41;21.60;53.70
44427;DHT22;30133;47.866;-4.222;2022-09-25T00:49:16;21.60;53.70
44427;DHT22;30133;47.866;-4.222;2022-09-25T00:51:58;21.60;53.70
44427;DHT22;30133;47.866;-4.222;2022-09-25T00:54:33;21.60;53.70
44427;DHT22;30133;47.866;-4.222;2022-09-25T00:57:06;21.60;53.70
44427;DHT22;30133;47.866;-4.222;2022-09-25T00:59:43;21.60;53.80
44427;DHT22;30133;47.866;-4.222;2022-09-25T01:02:17;21.60;53.70
44427;DHT22;30133;47.866;-4.222;2022-09-25T01:04:46;21.60;53.70
44427;DHT22;30133;47.866;-4.222;2022-09-25T01:07:13;21.60;53.70
44427;DHT22;30133;47.866;-4.222;2022-09-25T01:09:41;21.60;53.70
44427;DHT22;30133;47.866;-4.222;2022-09-25T01:12:09;21.60;53.70
44427;DHT22;30133;47.866;-4.222;2022-09-25T01:14:36;21.60;53.70
44427;DHT22;30133;47.866;-4.222;2022-09-25T01:17:06;21.60;53.70
44427;DHT22;30133;47.866;-4.222;2022-09-25T01:25:56;21.50;53.70
44427;DHT22;30133;47.866;-4.222;2022-09-25T01:31:52;21.50;53.80
44427;DHT22;30133;47.866;-4.222;2022-09-25T01:35:03;21.50;53.80
44427;DHT22;30133;47.866;-4.222;2022-09-25T01:40:56;21.50;53.80
44427;DHT22;30133;47.866;-4.222;2022-09-25T01:43:21;21.50;53.80
44427;DHT22;30133;47.866;-4.222;2022-09-25T01:46:07;21.50;53.80
44427;DHT22;30133;47.866;-4.222;2022-09-25T01:48:38;21.50;53.80
44427;DHT22;30133;47.866;-4.222;2022-09-25T01:51:24;21.40;53.80
44427;DHT22;30133;47.866;-4.222;2022-09-25T01:54:07;21.40;53.80
44427;DHT22;30133;47.866;-4.222;2022-09-25T01:59:58;21.40;53.70
44427;DHT22;30133;47.866;-4.222;2022-09-25T02:02:56;21.40;53.80
44427;DHT22;30133;47.866;-4.222;2022-09-25T02:06:03;21.40;53.80
44427;DHT22;30133;47.866;-4.222;2022-09-25T02:08:39;21.40;53.80
44427;DHT22;30133;47.866;-4.222;2022-09-25T02:11:08;21.40;53.80
44427;DHT22;30133;47.866;-4.222;2022-09-25T02:13:45;21.40;53.80
44427;DHT22;30133;47.866;-4.222;2022-09-25T02:16:19;21.40;53.80
44427;DHT22;30133;47.866;-4.222;2022-09-25T02:18:48;21.40;53.80
44427;DHT22;30133;47.866;-4.222;2022-09-25T02:24:27;21.40;53.70
44427;DHT22;30133;47.866;-4.222;2022-09-25T02:27:12;21.40;53.80
44427;DHT22;30133;47.866;-4.222;2022-09-25T02:29:43;21.40;53.80
44427;DHT22;30133;47.866;-4.222;2022-09-25T02:32:17;21.40;53.80
44427;DHT22;30133;47.866;-4.222;2022-09-25T02:34:48;21.40;53.80
44427;DHT22;30133;47.866;-4.222;2022-09-25T02:37:17;21.40;53.80
44427;DHT22;30133;47.866;-4.222;2022-09-25T02:39:51;21.40;53.70
44427;DHT22;30133;47.866;-4.222;2022-09-25T02:42:37;21.40;53.80
44427;DHT22;30133;47.866;-4.222;2022-09-25T02:51:31;21.30;53.80
44427;DHT22;30133;47.866;-4.222;2022-09-25T03:00:15;21.30;53.90
44427;DHT22;30133;47.866;-4.222;2022-09-25T03:02:53;21.30;53.90
44427;DHT22;30133;47.866;-4.222;2022-09-25T03:05:38;21.30;53.80
44427;DHT22;30133;47.866;-4.222;2022-09-25T03:08:07;21.30;53.80
44427;DHT22;30133;47.866;-4.222;2022-09-25T03:10:56;21.30;53.80
44427;DHT22;30133;47.866;-4.222;2022-09-25T03:13:26;21.30;53.80
44427;DHT22;30133;47.866;-4.222;2022-09-25T03:16:13;21.30;53.80
44427;DHT22;30133;47.866;-4.222;2022-09-25T03:18:44;21.30;53.90
44427;DHT22;30133;47.866;-4.222;2022-09-25T03:21:12;21.30;53.80
44427;DHT22;30133;47.866;-4.222;2022-09-25T03:23:39;21.30;53.80
44427;DHT22;30133;47.866;-4.222;2022-09-25T03:26:06;21.30;53.80
44427;DHT22;30133;47.866;-4.222;2022-09-25T03:28:34;21.30;53.80
44427;DHT22;30133;47.866;-4.222;2022-09-25T03:31:06;21.30;53.80
44427;DHT22;30133;47.866;-4.222;2022-09-25T03:33:38;21.30;53.80
44427;DHT22;30133;47.866;-4.222;2022-09-25T03:36:16;21.20;53.80
44427;DHT22;30133;47.866;-4.222;2022-09-25T03:38:50;21.20;53.80
44427;DHT22;30133;47.866;-4.222;2022-09-25T03:41:20;21.30;53.80
44427;DHT22;30133;47.866;-4.222;2022-09-25T03:43:48;21.20;53.80
44427;DHT22;30133;47.866;-4.222;2022-09-25T03:46:22;21.30;53.80
44427;DHT22;30133;47.866;-4.222;2022-09-25T03:48:52;21.20;53.80
44427;DHT22;30133;47.866;-4.222;2022-09-25T03:51:20;21.20;54.40
44427;DHT22;30133;47.866;-4.222;2022-09-25T03:53:48;21.20;53.80
44427;DHT22;30133;47.866;-4.222;2022-09-25T03:56:19;21.20;53.80
44427;DHT22;30133;47.866;-4.222;2022-09-25T03:58:51;21.20;53.80
44427;DHT22;30133;47.866;-4.222;2022-09-25T04:01:21;21.20;53.80
44427;DHT22;30133;47.866;-4.222;2022-09-25T04:03:50;21.20;53.80
44427;DHT22;30133;47.866;-4.222;2022-09-25T04:06:21;21.20;53.80
44427;DHT22;30133;47.866;-4.222;2022-09-25T04:08:50;21.20;53.80
44427;DHT22;30133;47.866;-4.222;2022-09-25T04:11:19;21.20;53.80
44427;DHT22;30133;47.866;-4.222;2022-09-25T04:13:51;21.20;53.80
44427;DHT22;30133;47.866;-4.222;2022-09-25T04:16:25;21.20;53.80
44427;DHT22;30133;47.866;-4.222;2022-09-25T04:18:54;21.20;53.80
44427;DHT22;30133;47.866;-4.222;2022-09-25T04:21:24;21.20;53.80
44427;DHT22;30133;47.866;-4.222;2022-09-25T04:23:51;21.20;53.80
44427;DHT22;30133;47.866;-4.222;2022-09-25T04:26:37;21.20;53.80
44427;DHT22;30133;47.866;-4.222;2022-09-25T04:29:05;21.10;53.80
44427;DHT22;30133;47.866;-4.222;2022-09-25T04:31:32;21.10;53.80
44427;DHT22;30133;47.866;-4.222;2022-09-25T04:33:59;21.10;53.80
44427;DHT22;30133;47.866;-4.222;2022-09-25T04:36:27;21.10;53.80
44427;DHT22;30133;47.866;-4.222;2022-09-25T04:38:54;21.10;53.80
44427;DHT22;30133;47.866;-4.222;2022-09-25T04:41:20;21.20;53.80
44427;DHT22;30133;47.866;-4.222;2022-09-25T04:43:49;21.10;53.80
44427;DHT22;30133;47.866;-4.222;2022-09-25T04:46:16;21.10;53.80
44427;DHT22;30133;47.866;-4.222;2022-09-25T04:48:45;21.10;53.80
44427;DHT22;30133;47.866;-4.222;2022-09-25T04:51:14;21.10;53.80
44427;DHT22;30133;47.866;-4.222;2022-09-25T04:53:42;21.10;53.80
44427;DHT22;30133;47.866;-4.222;2022-09-25T04:56:10;21.10;53.80
44427;DHT22;30133;47.866;-4.222;2022-09-25T04:58:46;21.10;53.80
44427;DHT22;30133;47.866;-4.222;2022-09-25T05:01:16;21.10;53.80
44427;DHT22;30133;47.866;-4.222;2022-09-25T05:03:49;21.10;53.80
44427;DHT22;30133;47.866;-4.222;2022-09-25T05:06:19;21.10;53.80
44427;DHT22;30133;47.866;-4.222;2022-09-25T05:08:49;21.10;53.80
44427;DHT22;30133;47.866;-4.222;2022-09-25T05:11:17;21.10;53.80
44427;DHT22;30133;47.866;-4.222;2022-09-25T05:13:49;21.10;53.80
44427;DHT22;30133;47.866;-4.222;2022-09-25T05:16:19;21.10;53.80
44427;DHT22;30133;47.866;-4.222;2022-09-25T05:18:47;21.10;53.80
44427;DHT22;30133;47.866;-4.222;2022-09-25T05:21:13;21.10;53.80
44427;DHT22;30133;47.866;-4.222;2022-09-25T05:23:40;21.10;53.80
44427;DHT22;30133;47.866;-4.222;2022-09-25T05:26:08;21.00;53.70
44427;DHT22;30133;47.866;-4.222;2022-09-25T05:28:36;21.10;53.80
44427;DHT22;30133;47.866;-4.222;2022-09-25T05:31:05;21.10;53.80
44427;DHT22;30133;47.866;-4.222;2022-09-25T05:33:34;21.10;53.80
44427;DHT22;30133;47.866;-4.222;2022-09-25T05:36:05;21.00;53.70
44427;DHT22;30133;47.866;-4.222;2022-09-25T05:38:35;21.00;53.80
44427;DHT22;30133;47.866;-4.222;2022-09-25T05:41:05;21.00;53.70
44427;DHT22;30133;47.866;-4.222;2022-09-25T05:43:38;21.00;53.80
44427;DHT22;30133;47.866;-4.222;2022-09-25T05:46:06;21.00;53.80
44427;DHT22;30133;47.866;-4.222;2022-09-25T05:48:34;21.00;53.80
44427;DHT22;30133;47.866;-4.222;2022-09-25T05:51:01;21.00;53.80
44427;DHT22;30133;47.866;-4.222;2022-09-25T05:53:29;21.00;53.80
44427;DHT22;30133;47.866;-4.222;2022-09-25T05:56:01;21.00;53.80
44427;DHT22;30133;47.866;-4.222;2022-09-25T05:58:33;21.00;53.70
44427;DHT22;30133;47.866;-4.222;2022-09-25T06:01:03;21.00;53.80
44427;DHT22;30133;47.866;-4.222;2022-09-25T06:03:31;21.00;53.80
44427;DHT22;30133;47.866;-4.222;2022-09-25T06:05:59;21.00;53.70
44427;DHT22;30133;47.866;-4.222;2022-09-25T06:08:28;21.00;53.70
44427;DHT22;30133;47.866;-4.222;2022-09-25T06:11:00;21.00;53.70
44427;DHT22;30133;47.866;-4.222;2022-09-25T06:13:30;21.00;53.80
44427;DHT22;30133;47.866;-4.222;2022-09-25T06:16:01;20.90;53.90
44427;DHT22;30133;47.866;-4.222;2022-09-25T06:18:29;20.90;53.80
44427;DHT22;30133;47.866;-4.222;2022-09-25T06:21:03;21.00;53.90
44427;DHT22;30133;47.866;-4.222;2022-09-25T06:23:30;20.90;53.80
44427;DHT22;30133;47.866;-4.222;2022-09-25T06:26:01;20.90;53.80
44427;DHT22;30133;47.866;-4.222;2022-09-25T06:28:29;21.00;53.80
44427;DHT22;30133;47.866;-4.222;2022-09-25T06:30:59;20.90;53.80
44427;DHT22;30133;47.866;-4.222;2022-09-25T06:33:27;20.90;53.80
44427;DHT22;30133;47.866;-4.222;2022-09-25T06:35:53;20.90;53.70
44427;DHT22;30133;47.866;-4.222;2022-09-25T06:38:19;20.90;53.80
44427;DHT22;30133;47.866;-4.222;2022-09-25T06:40:46;20.90;53.70
44427;DHT22;30133;47.866;-4.222;2022-09-25T06:43:15;20.90;53.70
44427;DHT22;30133;47.866;-4.222;2022-09-25T06:45:42;20.90;53.70
44427;DHT22;30133;47.866;-4.222;2022-09-25T06:48:11;20.90;53.70
44427;DHT22;30133;47.866;-4.222;2022-09-25T06:50:41;20.90;53.70
44427;DHT22;30133;47.866;-4.222;2022-09-25T06:53:12;20.90;53.70
44427;DHT22;30133;47.866;-4.222;2022-09-25T06:55:40;20.90;53.70
44427;DHT22;30133;47.866;-4.222;2022-09-25T06:58:14;20.90;53.70
44427;DHT22;30133;47.866;-4.222;2022-09-25T07:00:47;20.90;53.80
44427;DHT22;30133;47.866;-4.222;2022-09-25T07:03:15;20.90;53.70
44427;DHT22;30133;47.866;-4.222;2022-09-25T07:06:03;20.90;53.70
44427;DHT22;30133;47.866;-4.222;2022-09-25T07:08:33;20.90;53.70
44427;DHT22;30133;47.866;-4.222;2022-09-25T07:11:00;20.90;53.80
44427;DHT22;30133;47.866;-4.222;2022-09-25T07:13:30;20.90;53.70
44427;DHT22;30133;47.866;-4.222;2022-09-25T07:16:00;20.90;53.70
44427;DHT22;30133;47.866;-4.222;2022-09-25T07:18:30;20.90;53.70
44427;DHT22;30133;47.866;-4.222;2022-09-25T07:21:05;20.90;53.70
44427;DHT22;30133;47.866;-4.222;2022-09-25T07:23:37;20.90;53.80
44427;DHT22;30133;47.866;-4.222;2022-09-25T07:26:13;20.90;53.70
44427;DHT22;30133;47.866;-4.222;2022-09-25T07:28:42;20.90;53.70
44427;DHT22;30133;47.866;-4.222;2022-09-25T07:33:40;20.90;53.70
44427;DHT22;30133;47.866;-4.222;2022-09-25T07:36:07;20.90;53.70
44427;DHT22;30133;47.866;-4.222;2022-09-25T07:38:37;20.90;53.70
44427;DHT22;30133;47.866;-4.222;2022-09-25T07:41:08;20.90;53.70
44427;DHT22;30133;47.866;-4.222;2022-09-25T07:43:37;20.80;53.70
44427;DHT22;30133;47.866;-4.222;2022-09-25T07:46:05;20.90;53.70
44427;DHT22;30133;47.866;-4.222;2022-09-25T07:48:33;20.90;53.70
44427;DHT22;30133;47.866;-4.222;2022-09-25T07:51:05;20.90;53.70
44427;DHT22;30133;47.866;-4.222;2022-09-25T07:53:33;20.90;53.70
44427;DHT22;30133;47.866;-4.222;2022-09-25T07:56:04;20.90;53.70
44427;DHT22;30133;47.866;-4.222;2022-09-25T07:58:30;20.90;53.70
44427;DHT22;30133;47.866;-4.222;2022-09-25T08:01:02;20.90;53.70
44427;DHT22;30133;47.866;-4.222;2022-09-25T08:03:29;20.90;53.70
44427;DHT22;30133;47.866;-4.222;2022-09-25T08:06:01;20.80;53.70
44427;DHT22;30133;47.866;-4.222;2022-09-25T08:08:30;20.90;53.70
44427;DHT22;30133;47.866;-4.222;2022-09-25T08:11:03;20.90;53.70
44427;DHT22;30133;47.866;-4.222;2022-09-25T08:13:34;20.90;53.70
44427;DHT22;30133;47.866;-4.222;2022-09-25T08:16:04;20.90;53.70
44427;DHT22;30133;47.866;-4.222;2022-09-25T08:18:41;20.90;53.70
44427;DHT22;30133;47.866;-4.222;2022-09-25T08:21:12;20.90;53.80
44427;DHT22;30133;47.866;-4.222;2022-09-25T08:23:42;20.90;53.80
44427;DHT22;30133;47.866;-4.222;2022-09-25T08:26:09;20.90;53.80
44427;DHT22;30133;47.866;-4.222;2022-09-25T08:28:37;20.90;53.80
44427;DHT22;30133;47.866;-4.222;2022-09-25T08:31:05;20.90;53.80
44427;DHT22;30133;47.866;-4.222;2022-09-25T08:33:32;20.80;53.70
44427;DHT22;30133;47.866;-4.222;2022-09-25T08:36:02;20.90;53.80
44427;DHT22;30133;47.866;-4.222;2022-09-25T08:38:32;20.90;53.80
44427;DHT22;30133;47.866;-4.222;2022-09-25T08:43:32;20.90;53.80
44427;DHT22;30133;47.866;-4.222;2022-09-25T08:46:17;20.90;53.80
44427;DHT22;30133;47.866;-4.222;2022-09-25T08:49:11;20.90;53.80
44427;DHT22;30133;47.866;-4.222;2022-09-25T08:51:38;20.90;53.90
44427;DHT22;30133;47.866;-4.222;2022-09-25T08:54:07;20.80;53.80
44427;DHT22;30133;47.866;-4.222;2022-09-25T08:56:36;20.80;53.80
44427;DHT22;30133;47.866;-4.222;2022-09-25T09:02:03;20.90;53.80
44427;DHT22;30133;47.866;-4.222;2022-09-25T09:04:50;20.90;53.80
44427;DHT22;30133;47.866;-4.222;2022-09-25T09:12:59;20.80;53.80
44427;DHT22;30133;47.866;-4.222;2022-09-25T09:15:42;20.80;53.80
44427;DHT22;30133;47.866;-4.222;2022-09-25T09:18:35;20.80;54.00
44427;DHT22;30133;47.866;-4.222;2022-09-25T09:21:19;20.80;54.00
44427;DHT22;30133;47.866;-4.222;2022-09-25T09:30:21;20.90;53.90
44427;DHT22;30133;47.866;-4.222;2022-09-25T09:38:44;20.80;53.90
44427;DHT22;30133;47.866;-4.222;2022-09-25T09:50:17;20.90;54.00
44427;DHT22;30133;47.866;-4.222;2022-09-25T09:53:06;20.90;53.90
44427;DHT22;30133;47.866;-4.222;2022-09-25T09:55:48;20.90;54.00
44427;DHT22;30133;47.866;-4.222;2022-09-25T09:58:26;20.90;53.90
44427;DHT22;30133;47.866;-4.222;2022-09-25T10:01:16;21.00;53.90
44427;DHT22;30133;47.866;-4.222;2022-09-25T10:04:16;21.00;53.90
44427;DHT22;30133;47.866;-4.222;2022-09-25T10:06:56;21.00;53.90
44427;DHT22;30133;47.866;-4.222;2022-09-25T10:09:26;21.00;53.80
44427;DHT22;30133;47.866;-4.222;2022-09-25T10:12:03;21.00;53.90
44427;DHT22;30133;47.866;-4.222;2022-09-25T10:14:38;21.00;53.90
44427;DHT22;30133;47.866;-4.222;2022-09-25T10:17:09;21.00;53.80
44427;DHT22;30133;47.866;-4.222;2022-09-25T10:19:58;21.10;53.80
44427;DHT22;30133;47.866;-4.222;2022-09-25T10:22:36;21.10;53.80
44427;DHT22;30133;47.866;-4.222;2022-09-25T10:25:05;21.10;53.80
44427;DHT22;30133;47.866;-4.222;2022-09-25T10:32:59;21.20;53.60
44427;DHT22;30133;47.866;-4.222;2022-09-25T10:35:49;21.20;54.20
44427;DHT22;30133;47.866;-4.222;2022-09-25T10:38:42;21.20;53.60
44427;DHT22;30133;47.866;-4.222;2022-09-25T10:41:19;21.20;53.60
44427;DHT22;30133;47.866;-4.222;2022-09-25T10:46:27;21.20;53.60
44427;DHT22;30133;47.866;-4.222;2022-09-25T10:49:23;21.20;53.70
44427;DHT22;30133;47.866;-4.222;2022-09-25T10:52:12;21.20;53.70
44427;DHT22;30133;47.866;-4.222;2022-09-25T10:54:43;21.20;53.70
44427;DHT22;30133;47.866;-4.222;2022-09-25T10:59:51;21.30;53.70
44427;DHT22;30133;47.866;-4.222;2022-09-25T11:02:41;21.30;53.70
44427;DHT22;30133;47.866;-4.222;2022-09-25T11:05:18;21.30;53.60
44427;DHT22;30133;47.866;-4.222;2022-09-25T11:07:56;21.30;53.70
44427;DHT22;30133;47.866;-4.222;2022-09-25T11:10:33;21.30;53.70
44427;DHT22;30133;47.866;-4.222;2022-09-25T11:13:07;21.30;53.70
44427;DHT22;30133;47.866;-4.222;2022-09-25T11:15:36;21.30;53.60
44427;DHT22;30133;47.866;-4.222;2022-09-25T11:18:07;21.30;53.60
44427;DHT22;30133;47.866;-4.222;2022-09-25T11:21:03;21.30;53.60
44427;DHT22;30133;47.866;-4.222;2022-09-25T11:23:56;21.30;53.60
44427;DHT22;30133;47.866;-4.222;2022-09-25T11:26:35;21.30;53.60
44427;DHT22;30133;47.866;-4.222;2022-09-25T11:32:18;21.40;53.70
44427;DHT22;30133;47.866;-4.222;2022-09-25T11:35:45;21.30;53.60
44427;DHT22;30133;47.866;-4.222;2022-09-25T11:38:43;21.40;53.70
44427;DHT22;30133;47.866;-4.222;2022-09-25T11:41:54;21.30;53.70
44427;DHT22;30133;47.866;-4.222;2022-09-25T11:45:11;21.30;53.70
44427;DHT22;30133;47.866;-4.222;2022-09-25T11:51:52;21.30;53.80
44427;DHT22;30133;47.866;-4.222;2022-09-25T11:54:57;21.30;53.80
44427;DHT22;30133;47.866;-4.222;2022-09-25T12:15:44;21.30;53.80
44427;DHT22;30133;47.866;-4.222;2022-09-25T12:21:16;21.30;53.80
44427;DHT22;30133;47.866;-4.222;2022-09-25T12:24:10;21.40;53.80
44427;DHT22;30133;47.866;-4.222;2022-09-25T12:38:40;21.40;53.70
44427;DHT22;30133;47.866;-4.222;2022-09-25T12:44:16;21.40;53.70
44427;DHT22;30133;47.866;-4.222;2022-09-25T12:50:19;21.40;53.70
44427;DHT22;30133;47.866;-4.222;2022-09-25T12:53:18;21.40;53.70
44427;DHT22;30133;47.866;-4.222;2022-09-25T12:56:27;21.40;53.70
44427;DHT22;30133;47.866;-4.222;2022-09-25T12:59:01;21.40;53.60
44427;DHT22;30133;47.866;-4.222;2022-09-25T13:04:39;21.40;53.60
44427;DHT22;30133;47.866;-4.222;2022-09-25T13:07:59;21.40;53.60
44427;DHT22;30133;47.866;-4.222;2022-09-25T13:10:40;21.40;53.60
44427;DHT22;30133;47.866;-4.222;2022-09-25T13:13:17;21.40;53.60
44427;DHT22;30133;47.866;-4.222;2022-09-25T13:18:23;21.40;53.60
44427;DHT22;30133;47.866;-4.222;2022-09-25T13:20:54;21.40;53.50
44427;DHT22;30133;47.866;-4.222;2022-09-25T13:23:35;21.50;53.60
44427;DHT22;30133;47.866;-4.222;2022-09-25T13:26:16;21.50;53.50
44427;DHT22;30133;47.866;-4.222;2022-09-25T13:29:00;21.50;53.50
44427;DHT22;30133;47.866;-4.222;2022-09-25T13:31:34;21.50;53.50
44427;DHT22;30133;47.866;-4.222;2022-09-25T13:34:12;21.50;53.50
44427;DHT22;30133;47.866;-4.222;2022-09-25T13:36:54;21.50;53.50
44427;DHT22;30133;47.866;-4.222;2022-09-25T13:39:26;21.50;53.50
44427;DHT22;30133;47.866;-4.222;2022-09-25T13:42:35;21.50;53.50
44427;DHT22;30133;47.866;-4.222;2022-09-25T13:45:25;21.50;53.50
44427;DHT22;30133;47.866;-4.222;2022-09-25T13:50:43;21.50;53.50
44427;DHT22;30133;47.866;-4.222;2022-09-25T13:53:15;21.50;53.40
44427;DHT22;30133;47.866;-4.222;2022-09-25T13:58:21;21.60;53.40
44427;DHT22;30133;47.866;-4.222;2022-09-25T14:03:44;21.60;53.40
44427;DHT22;30133;47.866;-4.222;2022-09-25T14:06:24;21.60;53.40
44427;DHT22;30133;47.866;-4.222;2022-09-25T14:08:58;21.60;53.40
44427;DHT22;30133;47.866;-4.222;2022-09-25T14:11:34;21.60;53.40
44427;DHT22;30133;47.866;-4.222;2022-09-25T14:14:10;21.60;53.40
44427;DHT22;30133;47.866;-4.222;2022-09-25T14:16:48;21.60;53.40
44427;DHT22;30133;47.866;-4.222;2022-09-25T14:19:38;21.60;53.40
44427;DHT22;30133;47.866;-4.222;2022-09-25T14:22:06;21.60;53.40
44427;DHT22;30133;47.866;-4.222;2022-09-25T14:24:54;21.60;53.40
44427;DHT22;30133;47.866;-4.222;2022-09-25T14:27:25;21.60;53.40
44427;DHT22;30133;47.866;-4.222;2022-09-25T14:30:05;21.60;53.40
44427;DHT22;30133;47.866;-4.222;2022-09-25T14:32:57;21.60;53.30
44427;DHT22;30133;47.866;-4.222;2022-09-25T14:35:34;21.70;53.40
44427;DHT22;30133;47.866;-4.222;2022-09-25T14:38:24;21.70;53.40
44427;DHT22;30133;47.866;-4.222;2022-09-25T14:44:50;21.60;53.40
44427;DHT22;30133;47.866;-4.222;2022-09-25T14:47:20;21.60;53.40
44427;DHT22;30133;47.866;-4.222;2022-09-25T14:49:50;21.60;53.40
44427;DHT22;30133;47.866;-4.222;2022-09-25T14:52:24;21.60;53.40
44427;DHT22;30133;47.866;-4.222;2022-09-25T14:54:55;21.60;53.40
44427;DHT22;30133;47.866;-4.222;2022-09-25T14:57:33;21.60;53.40
44427;DHT22;30133;47.866;-4.222;2022-09-25T15:00:05;21.60;53.40
44427;DHT22;30133;47.866;-4.222;2022-09-25T15:02:37;21.60;53.40
44427;DHT22;30133;47.866;-4.222;2022-09-25T15:05:27;21.70;53.40
44427;DHT22;30133;47.866;-4.222;2022-09-25T15:07:57;21.70;53.40
44427;DHT22;30133;47.866;-4.222;2022-09-25T15:10:37;21.70;53.40
44427;DHT22;30133;47.866;-4.222;2022-09-25T15:13:14;21.60;53.30
44427;DHT22;30133;47.866;-4.222;2022-09-25T15:15:45;21.70;53.40
44427;DHT22;30133;47.866;-4.222;2022-09-25T15:18:31;21.60;53.30
44427;DHT22;30133;47.866;-4.222;2022-09-25T15:21:02;21.70;53.40
44427;DHT22;30133;47.866;-4.222;2022-09-25T15:24:08;21.70;53.30
44427;DHT22;30133;47.866;-4.222;2022-09-25T15:26:58;21.70;53.40
44427;DHT22;30133;47.866;-4.222;2022-09-25T15:29:34;21.70;53.40
44427;DHT22;30133;47.866;-4.222;2022-09-25T15:32:03;21.70;53.40
44427;DHT22;30133;47.866;-4.222;2022-09-25T15:34:32;21.70;53.40
44427;DHT22;30133;47.866;-4.222;2022-09-25T15:37:27;21.70;53.40
44427;DHT22;30133;47.866;-4.222;2022-09-25T15:40:15;21.70;53.30
44427;DHT22;30133;47.866;-4.222;2022-09-25T15:42:53;21.70;53.30
44427;DHT22;30133;47.866;-4.222;2022-09-25T15:48:01;21.70;53.30
44427;DHT22;30133;47.866;-4.222;2022-09-25T15:50:33;21.70;53.30
44427;DHT22;30133;47.866;-4.222;2022-09-25T15:53:00;21.70;53.30
44427;DHT22;30133;47.866;-4.222;2022-09-25T15:55:29;21.70;53.30
44427;DHT22;30133;47.866;-4.222;2022-09-25T15:58:06;21.70;53.30
44427;DHT22;30133;47.866;-4.222;2022-09-25T16:00:35;21.70;53.20
44427;DHT22;30133;47.866;-4.222;2022-09-25T16:03:22;21.70;53.30
44427;DHT22;30133;47.866;-4.222;2022-09-25T16:06:16;21.70;53.30
44427;DHT22;30133;47.866;-4.222;2022-09-25T16:08:43;21.70;53.30
44427;DHT22;30133;47.866;-4.222;2022-09-25T16:11:20;21.70;53.30
44427;DHT22;30133;47.866;-4.222;2022-09-25T16:13:52;21.70;53.30
44427;DHT22;30133;47.866;-4.222;2022-09-25T16:16:47;21.70;53.30
44427;DHT22;30133;47.866;-4.222;2022-09-25T16:19:30;21.70;53.20
44427;DHT22;30133;47.866;-4.222;2022-09-25T16:21:59;21.70;53.20
44427;DHT22;30133;47.866;-4.222;2022-09-25T16:24:39;21.70;53.20
44427;DHT22;30133;47.866;-4.222;2022-09-25T16:27:05;21.70;53.20
44427;DHT22;30133;47.866;-4.222;2022-09-25T16:29:37;21.70;53.20
44427;DHT22;30133;47.866;-4.222;2022-09-25T16:32:13;21.70;53.20
44427;DHT22;30133;47.866;-4.222;2022-09-25T16:34:41;21.70;53.10
44427;DHT22;30133;47.866;-4.222;2022-09-25T16:37:21;21.70;53.10
44427;DHT22;30133;47.866;-4.222;2022-09-25T16:40:23;21.70;53.70
44427;DHT22;30133;47.866;-4.222;2022-09-25T16:42:55;21.70;53.10
44427;DHT22;30133;47.866;-4.222;2022-09-25T16:45:28;21.70;53.10
44427;DHT22;30133;47.866;-4.222;2022-09-25T16:48:01;21.70;53.10
44427;DHT22;30133;47.866;-4.222;2022-09-25T16:50:51;21.70;53.10
44427;DHT22;30133;47.866;-4.222;2022-09-25T16:53:17;21.70;53.10
44427;DHT22;30133;47.866;-4.222;2022-09-25T16:55:45;21.70;53.10
44427;DHT22;30133;47.866;-4.222;2022-09-25T16:58:17;21.70;53.10
44427;DHT22;30133;47.866;-4.222;2022-09-25T17:00:48;21.70;53.10
44427;DHT22;30133;47.866;-4.222;2022-09-25T17:03:15;21.70;53.20
44427;DHT22;30133;47.866;-4.222;2022-09-25T17:05:41;21.60;53.10
44427;DHT22;30133;47.866;-4.222;2022-09-25T17:08:26;21.70;53.10
44427;DHT22;30133;47.866;-4.222;2022-09-25T17:10:52;21.60;53.00
44427;DHT22;30133;47.866;-4.222;2022-09-25T17:13:24;21.70;53.10
44427;DHT22;30133;47.866;-4.222;2022-09-25T17:15:51;21.70;53.00
44427;DHT22;30133;47.866;-4.222;2022-09-25T17:18:20;21.70;53.00
44427;DHT22;30133;47.866;-4.222;2022-09-25T17:20:51;21.70;53.00
44427;DHT22;30133;47.866;-4.222;2022-09-25T17:23:23;21.70;52.90
44427;DHT22;30133;47.866;-4.222;2022-09-25T17:26:23;21.60;52.90
44427;DHT22;30133;47.866;-4.222;2022-09-25T17:28:49;21.70;52.90
44427;DHT22;30133;47.866;-4.222;2022-09-25T17:31:18;21.70;52.90
44427;DHT22;30133;47.866;-4.222;2022-09-25T17:33:46;21.60;52.90
44427;DHT22;30133;47.866;-4.222;2022-09-25T17:36:14;21.60;52.90
44427;DHT22;30133;47.866;-4.222;2022-09-25T17:38:40;21.60;52.80
44427;DHT22;30133;47.866;-4.222;2022-09-25T17:41:28;21.60;52.80
44427;DHT22;30133;47.866;-4.222;2022-09-25T17:43:55;21.60;52.80
44427;DHT22;30133;47.866;-4.222;2022-09-25T17:46:22;21.60;52.80
44427;DHT22;30133;47.866;-4.222;2022-09-25T17:48:49;21.60;52.80
44427;DHT22;30133;47.866;-4.222;2022-09-25T17:51:21;21.60;52.80
44427;DHT22;30133;47.866;-4.222;2022-09-25T17:53:49;21.60;52.80
44427;DHT22;30133;47.866;-4.222;2022-09-25T17:56:19;21.60;52.80
44427;DHT22;30133;47.866;-4.222;2022-09-25T17:58:45;21.60;52.70
44427;DHT22;30133;47.866;-4.222;2022-09-25T18:01:18;21.60;52.70
44427;DHT22;30133;47.866;-4.222;2022-09-25T18:03:52;21.60;52.70
44427;DHT22;30133;47.866;-4.222;2022-09-25T18:06:19;21.60;52.70
44427;DHT22;30133;47.866;-4.222;2022-09-25T18:08:47;21.60;52.70
44427;DHT22;30133;47.866;-4.222;2022-09-25T18:11:14;21.60;52.70
44427;DHT22;30133;47.866;-4.222;2022-09-25T18:13:42;21.60;52.70
44427;DHT22;30133;47.866;-4.222;2022-09-25T18:16:19;21.60;52.70
44427;DHT22;30133;47.866;-4.222;2022-09-25T18:18:46;21.60;52.70
44427;DHT22;30133;47.866;-4.222;2022-09-25T18:21:31;21.60;52.70
44427;DHT22;30133;47.866;-4.222;2022-09-25T18:24:15;21.60;52.70
44427;DHT22;30133;47.866;-4.222;2022-09-25T18:26:42;21.50;52.70
44427;DHT22;30133;47.866;-4.222;2022-09-25T18:29:16;21.50;52.80